createdAt,value
2023-05-09T00:00:31.051Z,170.31
2023-05-09T00:01:30.693Z,170.56
2023-05-09T00:02:30.836Z,172.18
2023-05-09T00:03:30.784Z,169.56
2023-05-09T00:04:30.926Z,171.89
2023-05-09T00:05:30.878Z,171.64
2023-05-09T00:06:30.936Z,171.35
2023-05-09T00:07:30.995Z,173.51
2023-05-09T00:08:31.124Z,174.89
2023-05-09T00:09:31.061Z,174.97
2023-05-09T00:10:31.214Z,174.85
2023-05-09T00:11:31.165Z,177.18
2023-05-09T00:12:31.216Z,174.29
2023-05-09T00:13:31.254Z,175.86
2023-05-09T00:14:31.309Z,172.45
2023-05-09T00:15:31.360Z,173.04
2023-05-09T00:16:31.443Z,173.54
2023-05-09T00:17:31.533Z,173.67
2023-05-09T00:18:31.575Z,173.15
2023-05-09T00:19:31.647Z,173.94
2023-05-09T00:20:31.719Z,175.70
2023-05-09T00:21:31.764Z,173.64
2023-05-09T00:22:31.850Z,176.93
2023-05-09T00:23:31.902Z,176.28
2023-05-09T00:24:32.034Z,173.50
2023-05-09T00:25:32.017Z,172.47
2023-05-09T00:26:32.070Z,172.32
2023-05-09T00:27:32.089Z,172.06
2023-05-09T00:28:32.166Z,171.32
2023-05-09T00:29:32.224Z,173.84
2023-05-09T00:30:32.234Z,172.46
2023-05-09T00:31:32.331Z,172.01
2023-05-09T00:32:32.384Z,170.55
2023-05-09T00:33:32.451Z,171.63
2023-05-09T00:34:32.473Z,171.75
2023-05-09T00:35:32.547Z,171.87
2023-05-09T00:36:32.611Z,170.61
2023-05-09T00:37:32.672Z,170.91
2023-05-09T00:38:32.710Z,169.92
2023-05-09T00:39:32.790Z,169.48
2023-05-09T00:40:32.926Z,174.27
2023-05-09T00:41:32.880Z,173.51
2023-05-09T00:42:32.910Z,171.14
2023-05-09T00:43:32.992Z,168.16
2023-05-09T00:44:33.105Z,171.21
2023-05-09T00:45:33.106Z,171.67
2023-05-09T00:46:33.233Z,169.85
2023-05-09T00:47:33.425Z,169.12
2023-05-09T00:48:33.296Z,168.78
2023-05-09T00:49:33.353Z,171.04
2023-05-09T00:50:33.440Z,171.05
2023-05-09T00:51:33.478Z,170.39
2023-05-09T00:52:33.558Z,168.54
2023-05-09T00:53:33.597Z,168.11
2023-05-09T00:54:33.669Z,167.16
2023-05-09T00:55:33.733Z,165.18
2023-05-09T00:56:33.828Z,165.09
2023-05-09T00:57:33.811Z,170.31
2023-05-09T00:58:33.899Z,168.80
2023-05-09T00:59:33.966Z,171.42
2023-05-09T01:00:34.018Z,168.41
2023-05-09T01:01:34.111Z,166.38
2023-05-09T01:02:34.183Z,163.11
2023-05-09T01:03:34.247Z,167.58
2023-05-09T01:04:34.212Z,167.57
2023-05-09T01:05:34.244Z,168.28
2023-05-09T01:06:34.294Z,171.18
2023-05-09T01:07:34.375Z,165.65
2023-05-09T01:08:34.424Z,165.66
2023-05-09T01:09:34.463Z,167.41
2023-05-09T01:10:34.525Z,164.98
2023-05-09T01:11:34.612Z,169.16
2023-05-09T01:12:34.740Z,168.45
2023-05-09T01:13:34.710Z,168.27
2023-05-09T01:14:34.786Z,168.07
2023-05-09T01:15:34.836Z,165.54
2023-05-09T01:16:34.903Z,165.95
2023-05-09T01:17:34.962Z,165.86
2023-05-09T01:18:34.960Z,168.48
2023-05-09T01:19:34.999Z,165.37
2023-05-09T01:20:35.045Z,168.24
2023-05-09T01:21:35.102Z,169.50
2023-05-09T01:22:35.159Z,168.47
2023-05-09T01:23:35.217Z,168.40
2023-05-09T01:24:35.278Z,166.05
2023-05-09T01:25:35.311Z,162.53
2023-05-09T01:26:35.359Z,162.39
2023-05-09T01:27:35.398Z,164.94
2023-05-09T01:28:35.559Z,167.59
2023-05-09T01:29:35.533Z,166.90
2023-05-09T01:30:35.578Z,166.35
2023-05-09T01:31:35.611Z,167.93
2023-05-09T01:32:35.673Z,166.47
2023-05-09T01:33:35.634Z,167.56
2023-05-09T01:34:35.709Z,163.23
2023-05-09T01:35:35.806Z,166.54
2023-05-09T01:36:35.836Z,169.90
2023-05-09T01:37:35.884Z,171.37
2023-05-09T01:38:35.934Z,170.05
2023-05-09T01:39:35.983Z,170.70
2023-05-09T01:40:36.066Z,171.59
2023-05-09T01:41:36.132Z,166.13
2023-05-09T01:42:36.181Z,168.71
2023-05-09T01:43:36.371Z,167.14
2023-05-09T01:44:36.389Z,168.35
2023-05-09T01:45:36.375Z,166.66
2023-05-09T01:46:36.425Z,168.03
2023-05-09T01:47:36.532Z,168.97
2023-05-09T01:48:36.486Z,169.00
2023-05-09T01:49:36.537Z,169.12
2023-05-09T01:50:36.576Z,167.25
2023-05-09T01:51:36.660Z,165.79
2023-05-09T01:52:36.671Z,166.96
2023-05-09T01:53:36.720Z,163.41
2023-05-09T01:54:36.780Z,163.83
2023-05-09T01:55:36.866Z,164.71
2023-05-09T01:56:36.880Z,167.30
2023-05-09T01:57:36.960Z,164.52
2023-05-09T01:58:36.981Z,162.72
2023-05-09T01:59:37.033Z,166.56
2023-05-09T02:00:37.217Z,168.75
2023-05-09T02:01:37.120Z,166.22
2023-05-09T02:02:37.256Z,166.53
2023-05-09T02:03:37.249Z,168.17
2023-05-09T02:04:37.315Z,165.59
2023-05-09T02:05:37.339Z,169.63
2023-05-09T02:06:37.361Z,166.34
2023-05-09T02:07:37.395Z,167.87
2023-05-09T02:08:37.440Z,169.03
2023-05-09T02:09:37.524Z,169.76
2023-05-09T02:10:37.573Z,166.88
2023-05-09T02:11:37.663Z,167.49
2023-05-09T02:12:37.692Z,165.36
2023-05-09T02:13:37.725Z,168.72
2023-05-09T02:14:37.786Z,169.84
2023-05-09T02:15:37.844Z,169.07
2023-05-09T02:16:38.044Z,169.66
2023-05-09T02:17:38.009Z,168.51
2023-05-09T02:18:37.968Z,171.15
2023-05-09T02:19:38.023Z,166.69
2023-05-09T02:20:38.082Z,165.08
2023-05-09T02:21:38.108Z,164.62
2023-05-09T02:22:38.164Z,167.03
2023-05-09T02:23:38.197Z,168.63
2023-05-09T02:24:38.270Z,170.19
2023-05-09T02:25:38.334Z,166.35
2023-05-09T02:26:38.379Z,165.48
2023-05-09T02:27:38.474Z,168.92
2023-05-09T02:28:38.507Z,165.39
2023-05-09T02:29:38.564Z,169.10
2023-05-09T02:30:38.621Z,169.13
2023-05-09T02:31:38.693Z,169.16
2023-05-09T02:32:38.873Z,172.40
2023-05-09T02:33:38.749Z,170.38
2023-05-09T02:34:38.788Z,172.65
2023-05-09T02:35:38.857Z,170.52
2023-05-09T02:36:38.892Z,169.49
2023-05-09T02:37:38.930Z,171.20
2023-05-09T02:38:38.982Z,172.66
2023-05-09T02:39:39.062Z,168.67
2023-05-09T02:40:39.152Z,169.51
2023-05-09T02:41:39.176Z,167.08
2023-05-09T02:42:39.233Z,171.88
2023-05-09T02:43:39.286Z,171.03
2023-05-09T02:44:39.379Z,172.98
2023-05-09T02:45:39.409Z,171.41
2023-05-09T02:46:39.501Z,169.81
2023-05-09T02:47:39.662Z,169.44
2023-05-09T02:48:39.730Z,171.64
2023-05-09T02:49:39.679Z,168.18
2023-05-09T02:50:39.727Z,168.57
2023-05-09T02:51:39.772Z,168.18
2023-05-09T02:52:39.841Z,166.97
2023-05-09T02:53:39.878Z,168.31
2023-05-09T02:54:39.954Z,171.41
2023-05-09T02:55:40.005Z,171.78
2023-05-09T02:56:40.071Z,169.95
2023-05-09T02:57:40.078Z,172.06
2023-05-09T02:58:40.181Z,173.38
2023-05-09T02:59:40.239Z,171.83
2023-05-09T03:00:40.354Z,172.81
2023-05-09T03:01:40.426Z,171.04
2023-05-09T03:02:40.548Z,171.42
2023-05-09T03:03:40.573Z,171.51
2023-05-09T03:04:40.671Z,173.12
2023-05-09T03:05:40.658Z,175.04
2023-05-09T03:06:40.705Z,173.32
2023-05-09T03:07:40.776Z,170.43
2023-05-09T03:08:40.824Z,171.29
2023-05-09T03:09:41.381Z,172.30
2023-05-09T03:10:40.951Z,174.42
2023-05-09T03:11:41.013Z,174.38
2023-05-09T03:12:41.126Z,176.60
2023-05-09T03:13:41.168Z,176.29
2023-05-09T03:14:41.211Z,178.85
2023-05-09T03:15:41.306Z,173.40
2023-05-09T03:16:41.355Z,173.82
2023-05-09T03:17:41.455Z,176.76
2023-05-09T03:18:41.508Z,176.29
2023-05-09T03:19:41.557Z,177.68
2023-05-09T03:20:41.716Z,179.97
2023-05-09T03:21:41.720Z,174.81
2023-05-09T03:22:41.781Z,177.61
2023-05-09T03:23:41.800Z,175.00
2023-05-09T03:24:41.845Z,172.75
2023-05-09T03:25:41.936Z,173.23
2023-05-09T03:26:41.966Z,173.80
2023-05-09T03:27:42.113Z,172.12
2023-05-09T03:28:42.065Z,173.81
2023-05-09T03:29:42.149Z,175.10
2023-05-09T03:30:42.177Z,177.18
2023-05-09T03:31:42.228Z,176.80
2023-05-09T03:32:42.266Z,174.95
2023-05-09T03:33:42.301Z,174.86
2023-05-09T03:34:42.346Z,177.09
2023-05-09T03:35:42.368Z,173.94
2023-05-09T03:36:42.492Z,171.97
2023-05-09T03:37:42.412Z,174.89
2023-05-09T03:38:42.462Z,175.11
2023-05-09T03:39:42.534Z,174.36
2023-05-09T03:40:42.577Z,175.65
2023-05-09T03:41:42.616Z,174.14
2023-05-09T03:42:42.656Z,174.33
2023-05-09T03:43:42.729Z,175.17
2023-05-09T03:44:42.784Z,175.37
2023-05-09T03:45:42.815Z,177.98
2023-05-09T03:46:42.902Z,176.75
2023-05-09T03:47:42.967Z,179.92
2023-05-09T03:48:42.974Z,176.06
2023-05-09T03:49:43.032Z,175.88
2023-05-09T03:50:43.072Z,175.69
2023-05-09T03:51:43.114Z,175.03
2023-05-09T03:52:43.285Z,175.62
2023-05-09T03:53:43.239Z,172.69
2023-05-09T03:54:43.280Z,174.80
2023-05-09T03:55:43.379Z,174.16
2023-05-09T03:56:43.365Z,173.32
2023-05-09T03:57:43.404Z,174.12
2023-05-09T03:58:43.480Z,175.23
2023-05-09T03:59:43.504Z,170.94
2023-05-09T04:00:43.575Z,174.90
2023-05-09T04:01:43.664Z,175.74
2023-05-09T04:02:43.675Z,175.79
2023-05-09T04:03:43.811Z,175.11
2023-05-09T04:04:43.727Z,175.60
2023-05-09T04:05:43.757Z,173.87
2023-05-09T04:06:43.805Z,173.98
2023-05-09T04:07:43.849Z,177.93
2023-05-09T04:08:43.960Z,178.14
2023-05-09T04:09:43.882Z,177.69
2023-05-09T04:10:43.948Z,177.28
2023-05-09T04:11:43.996Z,174.40
2023-05-09T04:12:44.062Z,178.82
2023-05-09T04:13:44.065Z,176.67
2023-05-09T04:14:45.132Z,176.00
2023-05-09T04:15:44.164Z,178.21
2023-05-09T04:16:44.206Z,175.33
2023-05-09T04:17:44.257Z,180.38
2023-05-09T04:18:44.218Z,178.75
2023-05-09T04:19:44.243Z,181.86
2023-05-09T04:20:44.286Z,181.06
2023-05-09T04:21:44.300Z,180.65
2023-05-09T04:22:46.712Z,183.14
2023-05-09T04:23:44.534Z,181.81
2023-05-09T04:24:44.644Z,183.10
2023-05-09T04:25:44.617Z,182.73
2023-05-09T04:26:44.662Z,184.75
2023-05-09T04:27:44.713Z,188.42
2023-05-09T04:28:44.765Z,184.65
2023-05-09T04:29:44.817Z,186.47
2023-05-09T04:30:44.959Z,185.24
2023-05-09T04:31:45.210Z,186.68
2023-05-09T04:32:45.080Z,185.80
2023-05-09T04:33:45.071Z,186.43
2023-05-09T04:34:45.137Z,185.55
2023-05-09T04:35:45.202Z,185.97
2023-05-09T04:36:45.164Z,186.80
2023-05-09T04:37:45.176Z,187.60
2023-05-09T04:38:45.263Z,185.73
2023-05-09T04:39:45.260Z,187.33
2023-05-09T04:40:45.407Z,189.09
2023-05-09T04:41:45.338Z,188.76
2023-05-09T04:42:45.399Z,188.62
2023-05-09T04:43:45.397Z,188.79
2023-05-09T04:44:45.414Z,191.01
2023-05-09T04:45:45.480Z,190.73
2023-05-09T04:46:45.612Z,191.07
2023-05-09T04:47:45.644Z,190.06
2023-05-09T04:48:45.600Z,189.30
2023-05-09T04:49:45.665Z,190.98
2023-05-09T04:50:45.690Z,189.25
2023-05-09T04:51:45.739Z,188.92
2023-05-09T04:52:45.776Z,191.02
2023-05-09T04:53:45.817Z,190.00
2023-05-09T04:54:45.870Z,192.00
2023-05-09T04:55:45.954Z,190.68
2023-05-09T04:56:46.049Z,190.19
2023-05-09T04:57:45.991Z,192.03
2023-05-09T04:58:46.025Z,191.32
2023-05-09T04:59:46.097Z,192.73
2023-05-09T05:00:53.681Z,192.47
2023-05-09T05:01:46.324Z,192.87
2023-05-09T05:02:46.238Z,193.13
2023-05-09T05:03:46.220Z,193.81
2023-05-09T05:04:46.232Z,194.74
2023-05-09T05:05:46.403Z,197.51
2023-05-09T05:06:46.223Z,196.56
2023-05-09T05:07:46.237Z,196.57
2023-05-09T05:08:46.236Z,195.58
2023-05-09T05:09:46.267Z,193.31
2023-05-09T05:10:46.273Z,192.69
2023-05-09T05:11:58.018Z,193.62
2023-05-09T05:12:47.459Z,193.83
2023-05-09T05:13:46.329Z,193.72
2023-05-09T05:14:46.370Z,193.93
2023-05-09T05:15:46.431Z,193.59
2023-05-09T05:16:46.365Z,191.88
2023-05-09T05:17:46.534Z,192.76
2023-05-09T05:18:46.437Z,190.68
2023-05-09T05:19:46.425Z,191.50
2023-05-09T05:20:46.432Z,192.18
2023-05-09T05:21:46.438Z,196.51
2023-05-09T05:22:46.493Z,193.26
2023-05-09T05:23:46.460Z,195.43
2023-05-09T05:24:46.482Z,195.47
2023-05-09T05:25:46.504Z,195.47
2023-05-09T05:26:46.548Z,194.39
2023-05-09T05:27:46.576Z,195.31
2023-05-09T05:28:46.756Z,194.50
2023-05-09T05:29:46.670Z,227.47
2023-05-09T05:30:46.688Z,288.62
2023-05-09T05:31:46.798Z,370.94
2023-05-09T05:32:46.827Z,360.96
2023-05-09T05:33:46.811Z,354.20
2023-05-09T05:34:46.856Z,324.76
2023-05-09T05:35:46.892Z,298.03
2023-05-09T05:36:46.940Z,274.14
2023-05-09T05:37:49.030Z,257.67
2023-05-09T05:38:47.024Z,247.59
2023-05-09T05:39:47.050Z,243.99
2023-05-09T05:40:47.100Z,243.24
2023-05-09T05:41:47.209Z,234.53
2023-05-09T05:42:47.179Z,229.85
2023-05-09T05:43:47.214Z,228.52
2023-05-09T05:44:47.354Z,231.40
2023-05-09T05:47:06.309Z,25.00
2023-05-09T05:48:06.172Z,25.00
2023-05-09T05:49:06.161Z,25.00
2023-05-09T05:50:06.081Z,25.00
2023-05-09T05:51:06.079Z,25.00
2023-05-09T05:52:06.071Z,21.97
2023-05-09T05:53:06.084Z,25.00
2023-05-09T05:54:06.053Z,25.22
2023-05-09T05:55:06.064Z,24.86
2023-05-09T05:56:06.071Z,26.76
2023-05-09T05:57:06.082Z,26.35
2023-05-09T05:58:06.077Z,26.73
2023-05-09T05:59:06.172Z,25.00
2023-05-09T06:00:06.229Z,25.75
2023-05-09T06:01:06.091Z,29.04
2023-05-09T06:02:06.315Z,27.04
2023-05-09T06:03:06.160Z,25.00
2023-05-09T06:04:06.198Z,27.96
2023-05-09T06:05:06.135Z,25.67
2023-05-09T06:06:06.117Z,26.92
2023-05-09T06:07:06.779Z,27.06
2023-05-09T06:08:06.110Z,29.61
2023-05-09T06:09:06.127Z,34.91
2023-05-09T06:10:06.111Z,41.17
2023-05-09T06:11:06.123Z,51.63
2023-05-09T06:12:06.787Z,62.17
2023-05-09T06:13:06.123Z,70.02
2023-05-09T06:14:06.139Z,84.33
2023-05-09T06:15:06.115Z,102.94
2023-05-09T06:16:18.752Z,110.07
2023-05-09T06:17:07.236Z,110.44
2023-05-09T06:18:06.206Z,111.52
2023-05-09T06:19:06.164Z,113.14
2023-05-09T06:20:06.139Z,113.46
2023-05-09T06:21:06.158Z,116.83
2023-05-09T06:22:06.129Z,120.88
2023-05-09T06:23:06.308Z,123.81
2023-05-09T06:24:12.176Z,123.28
2023-05-09T06:25:10.153Z,123.63
2023-05-09T06:26:06.177Z,123.56
2023-05-09T06:27:06.176Z,124.32
2023-05-09T06:28:06.183Z,124.45
2023-05-09T06:29:06.131Z,117.90
2023-05-09T06:30:14.127Z,113.58
2023-05-09T06:31:07.263Z,118.27
2023-05-09T06:32:06.249Z,113.43
2023-05-09T06:33:06.290Z,107.19
2023-05-09T06:34:06.356Z,106.58
2023-05-09T06:35:06.238Z,108.49
2023-05-09T06:36:06.224Z,109.75
2023-05-09T06:37:06.280Z,107.71
2023-05-09T06:38:06.247Z,108.37
2023-05-09T06:39:06.245Z,104.03
2023-05-09T06:40:06.219Z,98.82
2023-05-09T06:41:06.230Z,97.93
2023-05-09T06:42:06.244Z,102.40
2023-05-09T06:43:06.248Z,104.76
2023-05-09T06:44:06.237Z,110.11
2023-05-09T06:45:06.304Z,114.52
2023-05-09T06:46:06.290Z,114.28
2023-05-09T06:47:06.264Z,116.84
2023-05-09T06:48:06.485Z,121.97
2023-05-09T06:49:06.311Z,120.40
2023-05-09T06:50:06.321Z,123.85
2023-05-09T06:51:06.343Z,116.73
2023-05-09T06:52:06.380Z,112.84
2023-05-09T06:53:06.392Z,102.22
2023-05-09T06:54:06.422Z,111.28
2023-05-09T06:55:06.466Z,107.85
2023-05-09T06:56:06.509Z,111.26
2023-05-09T06:57:06.524Z,111.69
2023-05-09T06:58:06.592Z,113.89
2023-05-09T06:59:06.600Z,106.97
2023-05-09T07:00:06.681Z,106.75
2023-05-09T07:01:06.643Z,98.07
2023-05-09T07:02:06.736Z,96.57
2023-05-09T07:03:06.868Z,94.40
2023-05-09T07:04:06.825Z,96.26
2023-05-09T07:05:06.789Z,87.47
2023-05-09T07:06:06.784Z,75.73
2023-05-09T07:07:06.822Z,72.61
2023-05-09T07:08:08.239Z,80.44
2023-05-09T07:09:07.028Z,85.10
2023-05-09T07:10:11.309Z,90.15
2023-05-09T07:11:07.928Z,90.34
2023-05-09T07:12:06.951Z,84.47
2023-05-09T07:13:06.995Z,79.24
2023-05-09T07:14:06.962Z,82.36
2023-05-09T07:15:06.958Z,78.85
2023-05-09T07:16:07.043Z,79.33
2023-05-09T07:17:22.072Z,79.65
2023-05-09T07:18:08.378Z,79.70
2023-05-09T07:19:07.066Z,79.11
2023-05-09T07:20:07.193Z,79.88
2023-05-09T07:21:07.105Z,84.65
2023-05-09T07:22:07.105Z,100.95
2023-05-09T07:23:07.130Z,112.31
2023-05-09T07:24:07.129Z,125.63
2023-05-09T07:25:07.108Z,129.54
2023-05-09T07:26:07.114Z,132.14
2023-05-09T07:27:07.166Z,134.04
2023-05-09T07:28:07.322Z,132.64
2023-05-09T07:29:07.319Z,133.18
2023-05-09T07:30:07.177Z,133.77
2023-05-09T07:31:07.185Z,140.53
2023-05-09T07:32:07.500Z,140.82
2023-05-09T07:33:07.319Z,136.35
2023-05-09T07:34:07.329Z,108.84
2023-05-09T07:35:07.346Z,84.54
2023-05-09T07:36:07.512Z,84.34
2023-05-09T07:37:07.452Z,65.89
2023-05-09T07:38:07.529Z,57.32
2023-05-09T07:39:07.617Z,46.43
2023-05-09T07:40:07.578Z,39.53
2023-05-09T07:41:07.676Z,37.31
2023-05-09T07:42:07.676Z,42.02
2023-05-09T07:43:07.664Z,62.31
2023-05-09T07:44:07.827Z,82.64
2023-05-09T07:45:07.738Z,104.17
2023-05-09T07:46:07.905Z,119.77
2023-05-09T07:47:07.865Z,134.65
2023-05-09T07:48:08.037Z,145.85
2023-05-09T07:49:08.051Z,147.97
2023-05-09T07:50:08.014Z,170.54
2023-05-09T07:51:08.091Z,185.89
2023-05-09T07:52:08.231Z,196.18
2023-05-09T07:53:08.209Z,203.33
2023-05-09T07:54:08.180Z,208.92
2023-05-09T07:55:08.183Z,212.81
2023-05-09T07:56:08.215Z,215.38
2023-05-09T07:57:08.270Z,221.26
2023-05-09T07:58:08.309Z,221.68
2023-05-09T07:59:08.311Z,227.51
2023-05-09T08:00:08.360Z,234.49
2023-05-09T08:01:08.351Z,237.10
2023-05-09T08:02:08.425Z,234.69
2023-05-09T08:03:08.625Z,238.54
2023-05-09T08:04:08.536Z,238.26
2023-05-09T08:05:08.473Z,240.59
2023-05-09T08:06:08.494Z,240.31
2023-05-09T08:07:08.500Z,237.87
2023-05-09T08:08:08.616Z,238.82
2023-05-09T08:09:08.836Z,242.29
2023-05-09T08:10:08.554Z,248.28
2023-05-09T08:11:08.592Z,249.90
2023-05-09T08:12:08.576Z,250.00
2023-05-09T08:13:08.636Z,247.89
2023-05-09T08:14:08.634Z,247.64
2023-05-09T08:15:08.667Z,249.15
2023-05-09T08:16:08.706Z,250.00
2023-05-09T08:17:08.735Z,248.53
2023-05-09T08:18:08.760Z,245.68
2023-05-09T08:19:08.832Z,247.34
2023-05-09T08:20:08.771Z,248.58
2023-05-09T08:21:08.815Z,248.63
2023-05-09T08:22:08.808Z,249.50
2023-05-09T08:23:08.819Z,249.41
2023-05-09T08:24:09.576Z,246.73
2023-05-09T08:25:08.922Z,249.17
2023-05-09T08:26:08.941Z,248.74
2023-05-09T08:27:09.008Z,250.00
2023-05-09T08:28:08.994Z,248.80
2023-05-09T08:29:09.346Z,250.53
2023-05-09T08:30:09.092Z,248.68
2023-05-09T08:31:09.145Z,246.75
2023-05-09T08:32:09.194Z,224.62
2023-05-09T08:33:09.269Z,208.49
2023-05-09T08:34:09.361Z,198.91
2023-05-09T08:35:09.314Z,145.04
2023-05-09T08:36:09.288Z,111.29
2023-05-09T08:37:09.387Z,119.29
2023-05-09T08:38:09.349Z,123.99
2023-05-09T08:39:09.399Z,107.21
2023-05-09T08:40:09.517Z,100.30
2023-05-09T08:41:09.442Z,87.85
2023-05-09T08:42:09.517Z,81.83
2023-05-09T08:43:09.535Z,73.88
2023-05-09T08:44:09.577Z,66.48
2023-05-09T08:45:09.588Z,59.02
2023-05-09T08:46:09.698Z,48.16
2023-05-09T08:47:09.723Z,45.99
2023-05-09T08:48:09.802Z,42.65
2023-05-09T08:49:09.889Z,41.20
2023-05-09T08:50:09.803Z,35.31
2023-05-09T08:51:09.906Z,38.35
2023-05-09T08:52:09.913Z,36.21
2023-05-09T08:53:09.955Z,45.24
2023-05-09T08:54:10.406Z,62.83
2023-05-09T08:55:10.023Z,82.25
2023-05-09T08:56:10.155Z,94.03
2023-05-09T08:57:10.084Z,103.61
2023-05-09T08:58:10.123Z,114.84
2023-05-09T08:59:10.123Z,121.18
2023-05-09T09:00:10.165Z,129.51
2023-05-09T09:01:10.186Z,133.02
2023-05-09T09:02:10.267Z,135.01
2023-05-09T09:03:10.304Z,136.60
2023-05-09T09:04:10.234Z,139.94
2023-05-09T09:05:23.965Z,144.76
2023-05-09T09:06:11.282Z,145.11
2023-05-09T09:07:10.268Z,145.77
2023-05-09T09:08:10.338Z,147.00
2023-05-09T09:09:10.305Z,152.71
2023-05-09T09:10:10.271Z,156.23
2023-05-09T09:11:10.242Z,160.32
2023-05-09T09:12:11.132Z,156.89
2023-05-09T09:13:10.303Z,154.49
2023-05-09T09:14:10.202Z,143.56
2023-05-09T09:15:10.209Z,146.95
2023-05-09T09:16:10.238Z,151.07
2023-05-09T09:17:10.184Z,148.01
2023-05-09T09:18:10.286Z,146.85
2023-05-09T09:19:10.185Z,153.44
2023-05-09T09:20:10.228Z,155.82
2023-05-09T09:21:10.381Z,156.05
2023-05-09T09:22:10.324Z,158.75
2023-05-09T09:23:10.405Z,160.00
2023-05-09T09:24:10.380Z,159.98
2023-05-09T09:25:10.409Z,156.85
2023-05-09T09:26:10.475Z,147.39
2023-05-09T09:27:10.520Z,148.87
2023-05-09T09:28:10.615Z,143.47
2023-05-09T09:29:10.556Z,142.67
2023-05-09T09:30:10.611Z,129.28
2023-05-09T09:31:10.634Z,138.49
2023-05-09T09:32:10.697Z,130.64
2023-05-09T09:33:10.771Z,131.48
2023-05-09T09:34:10.780Z,139.25
2023-05-09T09:35:10.884Z,141.24
2023-05-09T09:36:10.789Z,145.81
2023-05-09T09:37:10.791Z,147.40
2023-05-09T09:38:10.801Z,150.94
2023-05-09T09:39:10.819Z,156.62
2023-05-09T09:40:10.848Z,153.24
2023-05-09T09:41:10.850Z,155.84
2023-05-09T09:42:10.874Z,154.27
2023-05-09T09:43:10.881Z,136.57
2023-05-09T09:44:10.992Z,112.13
2023-05-09T09:45:11.383Z,95.50
2023-05-09T09:46:11.069Z,91.47
2023-05-09T09:47:10.981Z,39.36
2023-05-09T09:48:11.068Z,18.01
2023-05-09T09:49:11.116Z,0.00
2023-05-09T09:50:11.174Z,7.11
2023-05-09T09:51:11.195Z,12.09
2023-05-09T09:52:11.174Z,11.84
2023-05-09T09:53:11.239Z,16.78
2023-05-09T09:54:11.234Z,36.78
2023-05-09T09:55:11.261Z,51.22
2023-05-09T09:56:11.286Z,62.27
2023-05-09T09:57:11.250Z,72.99
2023-05-09T09:58:11.362Z,87.17
2023-05-09T09:59:11.294Z,99.85
2023-05-09T10:00:11.424Z,116.79
2023-05-09T10:01:11.439Z,127.69
2023-05-09T10:02:11.422Z,112.04
2023-05-09T10:03:11.603Z,110.71
2023-05-09T10:04:11.452Z,117.87
2023-05-09T10:05:11.464Z,126.78
2023-05-09T10:06:11.530Z,126.31
2023-05-09T10:07:14.509Z,113.26
2023-05-09T10:08:11.477Z,99.21
2023-05-09T10:09:11.503Z,97.77
2023-05-09T10:10:11.488Z,88.90
2023-05-09T10:11:11.515Z,90.88
2023-05-09T10:12:11.505Z,84.38
2023-05-09T10:13:11.528Z,65.04
2023-05-09T10:14:12.440Z,60.40
2023-05-09T10:15:11.434Z,62.36
2023-05-09T10:16:11.605Z,60.09
2023-05-09T10:17:11.440Z,43.53
2023-05-09T10:18:11.437Z,44.35
2023-05-09T10:19:11.430Z,44.19
2023-05-09T10:20:11.347Z,56.10
2023-05-09T10:21:11.340Z,59.53
2023-05-09T10:22:11.271Z,76.72
2023-05-09T10:23:11.301Z,88.55
2023-05-09T10:24:11.279Z,95.82
2023-05-09T10:25:11.264Z,105.46
2023-05-09T10:26:11.232Z,107.03
2023-05-09T10:27:11.323Z,105.28
2023-05-09T10:28:11.215Z,96.10
2023-05-09T10:29:11.190Z,100.87
2023-05-09T10:30:11.414Z,100.78
2023-05-09T10:31:11.201Z,91.07
2023-05-09T10:32:11.232Z,72.40
2023-05-09T10:33:11.223Z,87.74
2023-05-09T10:34:11.115Z,94.82
2023-05-09T10:35:11.430Z,86.67
2023-05-09T10:36:11.113Z,78.23
2023-05-09T10:37:11.103Z,70.50
2023-05-09T10:38:11.081Z,80.98
2023-05-09T10:39:11.046Z,88.93
2023-05-09T10:40:11.078Z,49.55
2023-05-09T10:41:11.412Z,4.48
2023-05-09T10:42:11.011Z,0.00
2023-05-09T10:43:11.005Z,0.00
2023-05-09T10:44:11.020Z,0.00
2023-05-09T10:45:10.961Z,5.11
2023-05-09T10:46:10.980Z,25.98
2023-05-09T10:47:10.923Z,37.12
2023-05-09T10:48:11.026Z,20.59
2023-05-09T10:49:10.922Z,14.06
2023-05-09T10:50:10.919Z,31.70
2023-05-09T10:51:10.902Z,42.91
2023-05-09T10:52:10.902Z,61.82
2023-05-09T10:53:10.882Z,66.99
2023-05-09T10:54:10.912Z,67.70
2023-05-09T10:55:10.815Z,61.01
2023-05-09T10:56:10.826Z,72.34
2023-05-09T10:57:10.787Z,85.79
2023-05-09T10:58:10.773Z,96.44
2023-05-09T10:59:10.771Z,96.83
2023-05-09T11:00:10.784Z,95.65
2023-05-09T11:01:10.850Z,86.28
2023-05-09T11:02:10.832Z,99.05
2023-05-09T11:03:10.982Z,102.15
2023-05-09T11:04:11.010Z,103.70
2023-05-09T11:05:10.915Z,106.26
2023-05-09T11:06:11.442Z,108.14
2023-05-09T11:07:10.942Z,110.55
2023-05-09T11:08:10.956Z,116.58
2023-05-09T11:09:10.980Z,123.50
2023-05-09T11:10:10.967Z,126.32
2023-05-09T11:11:11.276Z,127.62
2023-05-09T11:12:11.320Z,122.56
2023-05-09T11:13:10.965Z,123.05
2023-05-09T11:14:10.956Z,129.22
2023-05-09T11:15:10.961Z,133.06
2023-05-09T11:16:11.036Z,137.10
2023-05-09T11:17:12.043Z,142.68
2023-05-09T11:18:11.037Z,150.06
2023-05-09T11:19:10.939Z,154.25
2023-05-09T11:20:11.037Z,154.78
2023-05-09T11:21:10.976Z,156.88
2023-05-09T11:22:10.987Z,156.04
2023-05-09T11:23:10.985Z,158.63
2023-05-09T11:24:11.024Z,162.23
2023-05-09T11:25:10.966Z,160.99
2023-05-09T11:26:10.960Z,155.65
2023-05-09T11:27:10.935Z,155.46
2023-05-09T11:28:10.984Z,153.91
2023-05-09T11:29:10.953Z,150.33
2023-05-09T11:30:10.963Z,155.09
2023-05-09T11:31:11.428Z,163.13
2023-05-09T11:32:11.028Z,134.90
2023-05-09T11:33:11.022Z,124.54
2023-05-09T11:34:10.948Z,115.45
2023-05-09T11:35:10.964Z,70.38
2023-05-09T11:36:11.497Z,58.38
2023-05-09T11:37:10.944Z,52.01
2023-05-09T11:38:10.972Z,25.92
2023-05-09T11:39:10.998Z,51.34
2023-05-09T11:40:10.961Z,73.13
2023-05-09T11:41:10.947Z,86.58
2023-05-09T11:42:10.997Z,90.60
2023-05-09T11:43:10.961Z,95.59
2023-05-09T11:44:10.957Z,98.37
2023-05-09T11:45:10.960Z,96.11
2023-05-09T11:46:11.016Z,90.16
2023-05-09T11:47:11.017Z,91.57
2023-05-09T11:48:11.069Z,87.36
2023-05-09T11:49:12.172Z,67.38
2023-05-09T11:50:10.984Z,74.46
2023-05-09T11:51:11.019Z,83.78
2023-05-09T11:52:11.074Z,68.90
2023-05-09T11:53:11.027Z,76.64
2023-05-09T11:54:11.009Z,81.17
2023-05-09T11:55:12.720Z,78.78
2023-05-09T11:56:11.008Z,78.69
2023-05-09T11:57:11.068Z,84.87
2023-05-09T11:58:10.998Z,91.81
2023-05-09T11:59:11.016Z,92.18
2023-05-09T12:00:11.024Z,81.85
2023-05-09T12:01:12.170Z,76.83
2023-05-09T12:02:11.052Z,83.30
2023-05-09T12:03:11.141Z,87.81
2023-05-09T12:04:11.055Z,60.72
2023-05-09T12:05:11.034Z,68.72
2023-05-09T12:06:11.059Z,75.81
2023-05-09T12:07:11.048Z,83.15
2023-05-09T12:08:11.138Z,86.85
2023-05-09T12:09:11.063Z,86.10
2023-05-09T12:10:11.057Z,88.91
2023-05-09T12:11:11.070Z,90.66
2023-05-09T12:12:11.102Z,79.72
2023-05-09T12:13:11.114Z,71.95
2023-05-09T12:14:11.090Z,62.02
2023-05-09T12:15:11.140Z,69.92
2023-05-09T12:16:11.198Z,69.16
2023-05-09T12:17:11.154Z,70.74
2023-05-09T12:18:11.201Z,67.81
2023-05-09T12:19:11.150Z,72.25
2023-05-09T12:20:11.228Z,75.62
2023-05-09T12:21:11.196Z,81.12
2023-05-09T12:22:11.155Z,78.33
2023-05-09T12:23:11.210Z,78.61
2023-05-09T12:24:11.272Z,65.47
2023-05-09T12:25:11.212Z,17.27
2023-05-09T12:26:11.191Z,9.18
2023-05-09T12:27:11.194Z,0.00
2023-05-09T12:28:11.217Z,0.00
2023-05-09T12:29:11.190Z,0.00
2023-05-09T12:30:11.224Z,16.25
2023-05-09T12:31:11.236Z,35.80
2023-05-09T12:32:11.218Z,31.95
2023-05-09T12:33:11.273Z,31.65
2023-05-09T12:34:11.316Z,41.89
2023-05-09T12:35:11.408Z,53.48
2023-05-09T12:36:11.499Z,61.48
2023-05-09T12:37:11.327Z,65.51